Time;durP1;ratioP1;P1;durP2;ratioP2;P2;SDS_P1;SDS_P2;PMS_P1;PMS_P2;Temp;Humidity;BMP_temperature;BMP_pressure;BME280_temperature;BME280_humidity;BME280_pressure;Samples;Min_cycle;Max_cycle;Signal;HPM_P1;HPM_P2
2021/03/27 00:02:00;;;;;;;12.45;8.50;;;13.70;92.60;;;;;;1824946;78;21028;-70
2021/03/27 00:04:40;;;;;;;15.95;8.10;;;13.80;92.50;;;;;;1822439;78;21001;-69
2021/03/27 00:07:22;;;;;;;13.43;7.90;;;13.80;92.40;;;;;;1826132;78;21028;-69
2021/03/27 00:10:18;;;;;;;11.40;7.70;;;13.80;92.20;;;;;;1825920;78;21131;-71
2021/03/27 00:13:09;;;;;;;15.93;8.43;;;13.90;92.40;;;;;;1823969;78;21105;-70
2021/03/27 00:15:42;;;;;;;12.90;7.12;;;13.80;92.20;;;;;;1826069;77;21102;-71
2021/03/27 00:18:20;;;;;;;12.78;7.50;;;13.80;92.20;;;;;;1825047;78;21055;-71
2021/03/27 00:21:06;;;;;;;10.48;7.25;;;13.80;92.40;;;;;;1819627;78;21025;-71
2021/03/27 00:23:39;;;;;;;13.38;7.65;;;13.70;92.20;;;;;;1777832;79;21055;-70
2021/03/27 00:26:16;;;;;;;11.18;7.85;;;13.70;92.20;;;;;;1802046;78;21660;-71
2021/03/27 00:28:46;;;;;;;10.40;7.17;;;13.70;92.30;;;;;;1820437;78;21142;-70
2021/03/27 00:31:16;;;;;;;13.35;6.92;;;13.70;92.30;;;;;;1825187;77;21071;-71
2021/03/27 00:33:47;;;;;;;13.53;6.50;;;13.60;92.10;;;;;;1823784;78;21009;-69
2021/03/27 00:36:17;;;;;;;11.50;6.45;;;13.60;92.40;;;;;;1822675;78;21173;-70
2021/03/27 00:38:51;;;;;;;12.73;6.28;;;13.60;92.20;;;;;;1822620;78;21114;-71
2021/03/27 00:41:21;;;;;;;10.10;6.37;;;13.60;92.30;;;;;;1826273;77;21690;-70
2021/03/27 00:43:52;;;;;;;9.78;6.10;;;13.60;92.10;;;;;;1821818;77;21068;-70
2021/03/27 00:46:20;;;;;;;11.33;6.28;;;13.70;92.00;;;;;;1821145;77;21084;-69
2021/03/27 00:49:03;;;;;;;10.70;6.12;;;13.70;92.00;;;;;;1822342;78;21649;-69
2021/03/27 00:51:36;;;;;;;9.03;6.20;;;13.60;91.90;;;;;;1822076;78;21523;-68
2021/03/27 00:54:10;;;;;;;10.45;5.55;;;13.50;92.30;;;;;;1826992;78;21323;-69
2021/03/27 00:56:49;;;;;;;12.80;6.37;;;13.50;92.30;;;;;;1821690;77;21517;-69
2021/03/27 00:59:25;;;;;;;10.93;6.15;;;13.30;92.40;;;;;;1799344;77;21057;-69
2021/03/27 01:01:56;;;;;;;9.43;6.10;;;13.30;92.50;;;;;;1826351;77;21522;-69
2021/03/27 01:04:26;;;;;;;10.40;6.17;;;13.30;92.50;;;;;;1823746;78;21427;-69
2021/03/27 01:07:00;;;;;;;9.93;5.87;;;13.20;92.60;;;;;;1824051;77;21130;-69
2021/03/27 01:09:30;;;;;;;14.03;6.65;;;13.40;92.60;;;;;;1826065;78;21076;-69
2021/03/27 01:12:04;;;;;;;10.53;6.17;;;13.40;92.40;;;;;;1821720;77;21064;-69
2021/03/27 01:14:37;;;;;;;9.60;6.28;;;13.50;92.40;;;;;;1822361;78;21125;-69
2021/03/27 01:17:07;;;;;;;9.53;6.00;;;13.50;92.50;;;;;;1823395;78;21147;-69
2021/03/27 01:19:40;;;;;;;8.60;5.60;;;13.60;92.40;;;;;;1824358;78;21112;-69
2021/03/27 01:22:11;;;;;;;7.58;5.62;;;13.50;92.40;;;;;;1825725;78;21185;-69
2021/03/27 01:24:38;;;;;;;10.75;6.35;;;13.40;92.60;;;;;;1830935;78;21138;-68
2021/03/27 01:27:18;;;;;;;8.63;5.67;;;13.50;92.60;;;;;;1826309;78;21527;-69
2021/03/27 01:30:08;;;;;;;9.58;6.00;;;13.40;92.50;;;;;;1821053;77;21116;-69
2021/03/27 01:32:51;;;;;;;8.35;5.53;;;13.30;92.80;;;;;;1830344;78;21088;-68
2021/03/27 01:35:22;;;;;;;;;;;13.30;92.70;;;;;;1827024;78;21021;-69
2021/03/27 01:37:55;;;;;;;10.18;5.45;;;13.20;92.90;;;;;;1825859;78;20397;-70
2021/03/27 01:40:46;;;;;;;10.30;6.35;;;13.30;92.90;;;;;;1825974;78;21509;-70
2021/03/27 01:43:22;;;;;;;12.47;6.12;;;13.40;92.70;;;;;;1792961;78;21087;-70
2021/03/27 01:45:57;;;;;;;9.50;6.35;;;13.40;92.80;;;;;;1829989;77;21119;-70
2021/03/27 01:48:40;;;;;;;8.45;5.78;;;13.30;92.70;;;;;;1825222;78;21016;-70
2021/03/27 01:51:08;;;;;;;;;;;13.20;93.00;;;;;;1822504;78;21027;-70
2021/03/27 01:53:41;;;;;;;10.95;5.92;;;13.30;93.00;;;;;;1825287;78;20538;-70
2021/03/27 01:56:37;;;;;;;10.45;5.83;;;13.40;92.90;;;;;;1825028;78;21211;-69
2021/03/27 01:59:13;;;;;;;11.15;5.90;;;13.40;92.80;;;;;;1825419;78;21135;-70
2021/03/27 02:01:53;;;;;;;8.18;5.85;;;13.50;92.80;;;;;;1823523;78;21085;-70
2021/03/27 02:04:38;;;;;;;8.95;5.90;;;13.50;92.70;;;;;;1827589;78;21119;-70
2021/03/27 02:07:18;;;;;;;11.95;6.15;;;13.50;92.80;;;;;;1828665;78;21197;-70
2021/03/27 02:09:57;;;;;;;9.03;5.83;;;13.60;92.80;;;;;;1823152;77;21569;-70
2021/03/27 02:12:36;;;;;;;8.50;6.08;;;13.50;92.60;;;;;;1822818;78;21072;-70
2021/03/27 02:15:09;;;;;;;9.40;6.03;;;13.50;92.70;;;;;;1821764;78;21066;-69
2021/03/27 02:17:49;;;;;;;8.80;6.20;;;13.40;93.00;;;;;;1829158;78;21158;-69
2021/03/27 02:20:54;;;;;;;10.95;6.22;;;13.30;93.20;;;;;;1819450;78;21185;-69
2021/03/27 02:23:31;;;;;;;11.18;6.15;;;13.30;93.20;;;;;;1829181;78;21103;-69
2021/03/27 02:26:16;;;;;;;9.30;6.08;;;13.20;93.50;;;;;;1827281;78;21123;-69
2021/03/27 02:29:03;;;;;;;12.45;6.72;;;13.20;93.70;;;;;;1825327;78;21546;-69
2021/03/27 02:31:40;;;;;;;9.83;6.35;;;13.10;94.00;;;;;;1822442;78;21088;-69
2021/03/27 02:34:42;;;;;;;11.80;6.45;;;13.20;94.30;;;;;;1825069;78;21096;-69
2021/03/27 02:37:19;;;;;;;9.90;4.58;;;13.20;94.60;;;;;;1827652;78;21080;-68
2021/03/27 02:39:49;;;;;;;6.65;3.47;;;13.10;96.20;;;;;;1818068;78;21208;-69
2021/03/27 02:42:26;;;;;;;5.35;3.27;;;13.00;96.90;;;;;;1822803;78;21106;-69
2021/03/27 02:45:11;;;;;;;5.05;2.85;;;12.90;97.50;;;;;;1827272;78;21616;-68
2021/03/27 02:47:44;;;;;;;5.97;3.20;;;12.70;98.00;;;;;;1822801;78;21530;-69
2021/03/27 02:50:21;;;;;;;4.08;2.58;;;12.60;98.60;;;;;;1820720;78;21102;-69
2021/03/27 02:53:15;;;;;;;3.75;2.30;;;12.60;99.20;;;;;;1824823;77;21184;-68
2021/03/27 02:56:15;;;;;;;3.30;2.22;;;12.60;99.70;;;;;;1821724;78;21177;-68
2021/03/27 02:58:58;;;;;;;1.80;1.52;;;12.50;99.90;;;;;;1820192;78;21112;-68
2021/03/27 03:01:46;;;;;;;4.08;1.92;;;12.40;99.90;;;;;;1823383;77;21168;-69
2021/03/27 03:04:29;;;;;;;2.58;1.30;;;12.50;99.90;;;;;;1730097;81;21205;-69
2021/03/27 03:07:00;;;;;;;2.58;1.22;;;12.40;99.90;;;;;;1803665;77;21061;-68
2021/03/27 03:09:36;;;;;;;1.67;1.10;;;12.40;99.90;;;;;;1823666;77;21176;-68
2021/03/27 03:12:13;;;;;;;2.95;1.10;;;12.40;99.90;;;;;;1824929;77;21080;-69
2021/03/27 03:14:52;;;;;;;1.42;0.90;;;12.30;99.90;;;;;;1825275;78;21076;-68
2021/03/27 03:17:41;;;;;;;0.70;0.68;;;11.90;99.90;;;;;;1829073;78;21173;-68
2021/03/27 03:20:17;;;;;;;0.85;0.65;;;11.70;99.90;;;;;;1820082;78;21080;-69
2021/03/27 03:22:56;;;;;;;1.17;0.60;;;11.60;99.90;;;;;;1812817;78;21100;-68
2021/03/27 03:25:26;;;;;;;0.82;0.50;;;11.40;99.90;;;;;;1822742;78;21580;-70
2021/03/27 03:28:21;;;;;;;1.05;0.60;;;11.30;99.90;;;;;;1826394;77;21100;-70
2021/03/27 03:30:57;;;;;;;0.95;0.60;;;11.20;99.90;;;;;;1825310;78;21018;-70
2021/03/27 03:33:28;;;;;;;1.27;0.80;;;11.10;99.90;;;;;;1822950;78;21098;-69
2021/03/27 03:36:04;;;;;;;0.90;0.70;;;11.10;99.90;;;;;;1825294;77;20997;-69
2021/03/27 03:38:40;;;;;;;2.80;1.15;;;11.10;99.90;;;;;;1823316;78;21131;-70
2021/03/27 03:41:20;;;;;;;1.10;0.90;;;11.10;99.90;;;;;;1827783;78;21096;-70
2021/03/27 03:43:59;;;;;;;1.35;0.98;;;11.10;99.90;;;;;;1820221;78;21113;-69
2021/03/27 03:46:30;;;;;;;1.72;0.90;;;10.90;99.90;;;;;;1825409;78;21491;-68
2021/03/27 03:49:03;;;;;;;1.92;1.07;;;10.90;99.90;;;;;;1832029;78;21275;-68
2021/03/27 03:51:36;;;;;;;2.00;1.20;;;10.80;99.90;;;;;;1819845;78;21088;-71
2021/03/27 03:54:19;;;;;;;2.12;1.22;;;10.80;99.90;;;;;;1808029;78;21137;-72
2021/03/27 03:56:49;;;;;;;2.60;1.52;;;10.80;99.90;;;;;;1826042;77;21155;-71
2021/03/27 03:59:35;;;;;;;2.75;1.30;;;10.80;99.90;;;;;;1811140;78;21118;-70
2021/03/27 04:02:17;;;;;;;3.02;1.40;;;10.90;99.90;;;;;;1824054;78;21126;-68
2021/03/27 04:04:46;;;;;;;;;;;10.80;99.90;;;;;;1818441;78;21547;-69
2021/03/27 04:07:17;;;;;;;2.10;1.65;;;10.80;99.90;;;;;;1823251;77;20108;-69
2021/03/27 04:09:53;;;;;;;3.55;1.80;;;10.80;99.90;;;;;;1823756;78;21143;-69
2021/03/27 04:12:35;;;;;;;2.33;1.82;;;10.80;99.90;;;;;;1794225;79;21565;-70
2021/03/27 04:15:09;;;;;;;4.85;2.42;;;10.80;99.90;;;;;;1775168;80;21223;-70
2021/03/27 04:18:02;;;;;;;3.87;1.92;;;10.70;99.90;;;;;;1769906;78;21660;-69
2021/03/27 04:20:51;;;;;;;3.37;1.98;;;10.70;99.90;;;;;;1824216;78;21111;-69
2021/03/27 04:23:33;;;;;;;4.37;2.22;;;10.60;99.90;;;;;;1825447;78;21166;-70
2021/03/27 04:26:27;;;;;;;2.85;2.33;;;10.60;99.90;;;;;;1818197;78;21149;-68
2021/03/27 04:29:15;;;;;;;4.85;2.58;;;10.60;99.90;;;;;;1827236;77;22299;-69
2021/03/27 04:31:48;;;;;;;4.03;2.98;;;10.60;99.90;;;;;;1818746;78;21091;-69
2021/03/27 04:34:34;;;;;;;4.03;3.08;;;10.50;99.90;;;;;;1820291;78;21063;-69
2021/03/27 04:37:11;;;;;;;5.37;3.40;;;10.60;99.90;;;;;;1823870;78;21048;-68
2021/03/27 04:40:04;;;;;;;5.47;3.20;;;10.60;99.90;;;;;;1827927;78;21093;-69
2021/03/27 04:42:43;;;;;;;4.10;3.35;;;10.60;99.90;;;;;;1820630;78;21545;-69
2021/03/27 04:45:40;;;;;;;3.85;3.40;;;10.60;99.90;;;;;;1825220;77;21081;-69
2021/03/27 04:48:30;;;;;;;4.58;3.77;;;10.60;99.90;;;;;;1827621;78;21098;-68
2021/03/27 04:51:24;;;;;;;4.75;4.10;;;10.60;99.90;;;;;;1817709;78;21189;-70
2021/03/27 04:53:54;;;;;;;8.35;4.25;;;10.60;99.90;;;;;;1773839;80;21266;-70
2021/03/27 04:56:56;;;;;;;6.25;4.58;;;10.50;99.90;;;;;;1821628;78;21193;-70
2021/03/27 04:59:39;;;;;;;8.18;4.47;;;10.60;99.90;;;;;;1820977;78;21173;-70
2021/03/27 05:02:15;;;;;;;4.92;4.42;;;10.50;99.90;;;;;;1823661;78;21659;-70
2021/03/27 05:05:10;;;;;;;5.22;4.22;;;10.40;99.90;;;;;;1807009;78;21138;-69
2021/03/27 05:07:52;;;;;;;5.72;3.92;;;10.50;99.90;;;;;;1826915;78;21108;-70
2021/03/27 05:10:31;;;;;;;6.97;3.52;;;10.60;99.90;;;;;;1823015;78;21185;-68
2021/03/27 05:13:02;;;;;;;6.35;3.25;;;10.50;99.90;;;;;;1838448;77;21076;-69
2021/03/27 05:15:42;;;;;;;4.55;3.33;;;10.40;99.90;;;;;;1834002;77;21141;-69
2021/03/27 05:18:39;;;;;;;6.33;3.67;;;10.40;99.90;;;;;;1821342;78;21122;-70
2021/03/27 05:21:12;;;;;;;5.65;4.22;;;10.40;99.90;;;;;;1818493;78;21172;-70
2021/03/27 05:23:46;;;;;;;7.50;4.17;;;10.40;99.90;;;;;;1822193;78;21044;-70
2021/03/27 05:26:19;;;;;;;5.10;4.05;;;10.40;99.90;;;;;;1823005;77;21075;-70
2021/03/27 05:29:07;;;;;;;8.50;4.58;;;10.40;99.90;;;;;;1824736;78;21243;-70
2021/03/27 05:31:40;;;;;;;5.72;4.22;;;10.40;99.90;;;;;;1764317;77;21103;-69
2021/03/27 05:34:33;;;;;;;7.90;4.30;;;10.40;99.90;;;;;;1828890;77;21676;-69
2021/03/27 05:37:10;;;;;;;7.08;4.25;;;10.50;99.90;;;;;;1820500;78;21203;-68
2021/03/27 05:39:43;;;;;;;10.10;5.00;;;10.20;99.90;;;;;;1820566;77;21077;-68
2021/03/27 05:42:30;;;;;;;7.17;5.50;;;10.00;99.90;;;;;;1825909;78;21601;-68
2021/03/27 05:45:30;;;;;;;7.97;5.45;;;10.00;99.90;;;;;;1823436;78;21091;-68
2021/03/27 05:48:21;;;;;;;9.18;6.10;;;10.20;99.90;;;;;;1834089;78;21088;-68
2021/03/27 05:50:51;;;;;;;9.35;6.30;;;10.20;99.90;;;;;;1824584;78;21117;-69
2021/03/27 05:53:49;;;;;;;9.23;5.75;;;10.30;99.90;;;;;;1823563;77;21128;-69
2021/03/27 05:56:42;;;;;;;9.63;6.60;;;10.40;99.90;;;;;;1826634;78;21582;-69
2021/03/27 05:59:27;;;;;;;;;;;10.30;99.90;;;;;;1831076;77;22076;-69
2021/03/27 06:02:06;;;;;;;10.23;6.15;;;10.20;99.90;;;;;;1823212;78;20180;-70
2021/03/27 06:05:11;;;;;;;10.78;6.25;;;10.30;99.90;;;;;;1824917;78;21150;-70
2021/03/27 06:07:43;;;;;;;9.75;7.25;;;10.40;99.90;;;;;;1829350;78;21115;-70
2021/03/27 06:10:31;;;;;;;10.73;7.20;;;10.30;99.90;;;;;;1816216;78;21131;-70
2021/03/27 06:13:23;;;;;;;9.40;7.30;;;10.30;99.90;;;;;;1826181;78;21028;-70
2021/03/27 06:16:13;;;;;;;9.70;7.63;;;10.20;99.90;;;;;;1830794;78;21092;-70
2021/03/27 06:19:00;;;;;;;12.30;7.47;;;10.20;99.90;;;;;;1825139;78;21143;-70
2021/03/27 06:21:39;;;;;;;11.88;7.62;;;10.20;99.90;;;;;;1827517;78;21099;-70
2021/03/27 06:24:35;;;;;;;12.30;8.20;;;10.20;99.90;;;;;;1822879;77;21147;-69
2021/03/27 06:27:24;;;;;;;11.65;8.33;;;10.20;99.90;;;;;;1824372;78;21132;-69
2021/03/27 06:30:16;;;;;;;12.30;8.28;;;10.10;99.90;;;;;;1825812;78;21148;-71
2021/03/27 06:33:11;;;;;;;11.87;7.80;;;10.10;99.90;;;;;;1821593;78;21527;-70
2021/03/27 06:36:02;;;;;;;11.68;8.05;;;10.10;99.90;;;;;;1831615;78;21151;-71
2021/03/27 06:39:02;;;;;;;13.33;7.47;;;10.20;99.90;;;;;;1812116;78;21280;-70
2021/03/27 06:41:35;;;;;;;14.87;7.65;;;10.20;99.90;;;;;;1819491;78;21212;-69
2021/03/27 06:44:28;;;;;;;14.07;6.90;;;10.20;99.90;;;;;;1823377;78;21138;-69
2021/03/27 06:47:04;;;;;;;13.35;7.65;;;10.30;99.90;;;;;;1828412;78;21128;-69
2021/03/27 06:49:52;;;;;;;10.90;6.65;;;10.30;99.90;;;;;;1823247;77;21181;-69
2021/03/27 06:52:31;;;;;;;12.68;6.65;;;10.10;99.90;;;;;;1821215;78;21169;-69
2021/03/27 06:55:17;;;;;;;13.70;6.70;;;10.10;99.90;;;;;;1824009;78;21094;-70
2021/03/27 06:57:53;;;;;;;12.90;6.28;;;10.10;99.90;;;;;;1824154;78;21613;-69
2021/03/27 07:00:47;;;;;;;11.08;6.47;;;10.20;99.90;;;;;;1799525;78;21120;-69
2021/03/27 07:03:42;;;;;;;16.50;7.20;;;10.30;99.90;;;;;;1824107;78;21080;-69
2021/03/27 07:06:35;;;;;;;17.62;6.53;;;10.50;99.90;;;;;;1821696;78;21099;-73
2021/03/27 07:09:08;;;;;;;9.33;5.33;;;10.40;99.90;;;;;;1826547;78;21175;-74
2021/03/27 07:11:45;;;;;;;15.60;6.12;;;10.50;99.90;;;;;;1823796;76;21095;-73
2021/03/27 07:14:41;;;;;;;15.18;5.60;;;10.60;99.90;;;;;;1822860;77;21197;-73
2021/03/27 07:17:31;;;;;;;14.73;5.12;;;10.60;99.90;;;;;;1820636;78;21554;-73
2021/03/27 07:20:08;;;;;;;11.10;5.00;;;10.60;99.90;;;;;;1824428;78;21639;-73
2021/03/27 07:22:44;;;;;;;11.73;5.35;;;10.60;99.90;;;;;;1821459;78;21087;-73
2021/03/27 07:25:27;;;;;;;14.25;5.55;;;10.70;99.90;;;;;;1820456;76;21111;-73
2021/03/27 07:28:20;;;;;;;12.35;5.05;;;10.80;99.90;;;;;;1825317;76;21087;-73
2021/03/27 07:31:02;;;;;;;12.70;5.40;;;10.80;99.90;;;;;;1831571;76;21064;-74
2021/03/27 07:33:48;;;;;;;12.40;5.37;;;10.70;99.90;;;;;;1819181;78;21681;-74
2021/03/27 07:36:35;;;;;;;14.33;5.60;;;10.80;99.90;;;;;;1758339;77;21183;-74
2021/03/27 07:39:08;;;;;;;14.38;6.28;;;10.60;99.90;;;;;;1828780;77;21189;-74
2021/03/27 07:42:06;;;;;;;14.25;5.20;;;10.50;99.90;;;;;;1830364;78;21205;-74
2021/03/27 07:44:39;;;;;;;18.20;6.42;;;10.60;99.90;;;;;;1823401;76;21671;-73
2021/03/27 07:47:19;;;;;;;16.30;6.90;;;10.50;99.90;;;;;;1831534;76;21118;-74
2021/03/27 07:50:08;;;;;;;13.68;7.50;;;10.40;99.90;;;;;;1830741;77;21057;-73
2021/03/27 07:53:14;;;;;;;13.60;7.45;;;10.40;99.90;;;;;;1828224;78;21217;-72
2021/03/27 07:56:05;;;;;;;14.83;7.05;;;10.40;99.90;;;;;;1827407;78;21137;-74
2021/03/27 07:58:51;;;;;;;12.15;6.85;;;10.20;99.90;;;;;;1824951;78;21964;-74
2021/03/27 08:01:38;;;;;;;17.02;7.05;;;10.30;99.90;;;;;;1793530;78;21024;-73
2021/03/27 08:04:37;;;;;;;14.03;6.50;;;10.20;99.90;;;;;;1830014;78;21103;-74
2021/03/27 08:07:08;;;;;;;13.32;5.78;;;10.30;99.90;;;;;;1820338;78;21551;-73
2021/03/27 08:09:53;;;;;;;13.55;5.85;;;10.20;99.90;;;;;;1823341;78;21218;-73
2021/03/27 08:12:24;;;;;;;13.48;6.67;;;10.20;99.90;;;;;;1824292;78;21525;-74
2021/03/27 08:15:16;;;;;;;12.07;5.87;;;10.20;99.90;;;;;;1824985;78;21165;-75
2021/03/27 08:17:45;;;;;;;;;;;10.20;99.90;;;;;;1819223;78;21497;-74
2021/03/27 08:20:38;;;;;;;13.53;5.90;;;10.20;99.90;;;;;;1828711;77;20440;-74
2021/03/27 08:23:08;;;;;;;15.93;6.00;;;10.30;99.90;;;;;;1826970;76;21122;-74
2021/03/27 08:26:11;;;;;;;11.15;5.83;;;10.40;99.90;;;;;;1825855;78;22141;-74
2021/03/27 08:28:57;;;;;;;;;;;10.60;99.90;;;;;;1826313;78;21116;-74
2021/03/27 08:31:44;;;;;;;13.53;6.30;;;10.70;99.90;;;;;;1863904;75;20366;-74
2021/03/27 08:34:36;;;;;;;16.25;6.58;;;10.60;99.90;;;;;;1863122;75;21118;-74
2021/03/27 08:37:12;;;;;;;13.03;6.05;;;10.50;99.90;;;;;;1867045;76;21064;-73
2021/03/27 08:39:55;;;;;;;12.13;5.90;;;10.60;99.90;;;;;;1866717;75;21168;-73
2021/03/27 08:42:51;;;;;;;12.75;6.60;;;10.70;99.90;;;;;;1864972;76;22205;-71
2021/03/27 08:45:28;;;;;;;12.33;5.70;;;10.60;99.90;;;;;;1864228;75;21108;-67
2021/03/27 08:48:13;;;;;;;12.75;5.17;;;10.50;99.90;;;;;;1868265;76;21089;-71
2021/03/27 08:51:04;;;;;;;12.35;5.55;;;10.50;99.90;;;;;;1862384;75;22111;-71
2021/03/27 08:53:43;;;;;;;13.00;5.58;;;10.50;99.90;;;;;;1867848;76;21152;-70
2021/03/27 08:56:35;;;;;;;7.78;4.47;;;10.50;99.90;;;;;;1863064;76;21147;-68
2021/03/27 08:59:32;;;;;;;11.47;5.07;;;10.50;99.90;;;;;;1862999;75;21160;-72
2021/03/27 09:02:18;;;;;;;13.13;5.47;;;10.60;99.90;;;;;;1863898;75;21178;-69
2021/03/27 09:04:57;;;;;;;13.32;4.87;;;10.70;99.90;;;;;;1862829;76;21178;-68
2021/03/27 09:07:48;;;;;;;13.22;4.72;;;11.00;99.90;;;;;;1862764;75;21157;-68
2021/03/27 09:10:36;;;;;;;11.73;3.98;;;11.00;99.90;;;;;;1835383;76;21088;-68
2021/03/27 09:13:22;;;;;;;13.22;4.45;;;11.10;99.90;;;;;;1868576;76;21148;-68
2021/03/27 09:16:25;;;;;;;10.05;4.33;;;11.10;99.90;;;;;;1865082;76;21173;-68
2021/03/27 09:19:10;;;;;;;11.97;4.33;;;11.10;99.90;;;;;;1871096;76;22529;-69
2021/03/27 09:21:57;;;;;;;11.03;3.72;;;11.20;99.90;;;;;;1864445;76;21183;-68
2021/03/27 09:24:31;;;;;;;10.45;3.65;;;11.30;99.90;;;;;;1863864;76;21178;-68
2021/03/27 09:27:35;;;;;;;12.33;3.47;;;11.40;99.90;;;;;;1863916;76;21535;-68
2021/03/27 09:30:26;;;;;;;11.22;3.20;;;11.30;99.90;;;;;;1863467;75;21207;-68
2021/03/27 09:32:57;;;;;;;11.55;3.70;;;11.20;99.90;;;;;;1860572;75;21147;-68
2021/03/27 09:35:27;;;;;;;9.60;3.00;;;11.50;99.90;;;;;;1860127;76;21119;-69
2021/03/27 09:38:28;;;;;;;12.25;3.42;;;11.50;99.40;;;;;;1865776;76;21341;-68
2021/03/27 09:41:32;;;;;;;15.43;3.40;;;11.60;99.90;;;;;;1863437;76;21174;-68
2021/03/27 09:44:22;;;;;;;11.08;3.10;;;11.60;99.90;;;;;;1866741;75;21085;-69
2021/03/27 09:47:10;;;;;;;12.55;3.40;;;11.70;99.90;;;;;;1867138;75;21482;-68
2021/03/27 09:49:49;;;;;;;12.90;3.33;;;11.50;99.90;;;;;;1865616;76;21160;-69
2021/03/27 09:52:40;;;;;;;14.90;3.10;;;11.40;99.90;;;;;;1863712;76;21591;-68
2021/03/27 09:55:36;;;;;;;13.50;2.95;;;11.20;99.90;;;;;;1865633;75;21160;-67
2021/03/27 09:58:16;;;;;;;16.12;3.17;;;11.10;99.90;;;;;;1868346;76;21104;-67
2021/03/27 10:00:53;;;;;;;11.80;3.08;;;11.00;99.90;;;;;;1867918;75;21127;-67
2021/03/27 10:03:29;;;;;;;13.13;2.90;;;11.10;99.90;;;;;;1866198;75;21137;-72
2021/03/27 10:06:02;;;;;;;8.53;2.22;;;11.00;99.90;;;;;;1817500;76;21101;-71
2021/03/27 10:08:42;;;;;;;12.82;2.50;;;11.10;99.90;;;;;;1848200;76;21094;-69
2021/03/27 10:11:18;;;;;;;16.50;2.85;;;11.10;99.90;;;;;;1864810;76;21112;-70
2021/03/27 10:14:05;;;;;;;14.28;2.65;;;11.20;99.90;;;;;;1866396;75;21242;-71
2021/03/27 10:16:38;;;;;;;12.58;2.92;;;11.20;99.90;;;;;;1868130;75;21260;-71
2021/03/27 10:19:21;;;;;;;15.13;3.02;;;11.20;99.90;;;;;;1818602;72;21527;-74
2021/03/27 10:21:54;;;;;;;12.93;2.90;;;11.30;99.90;;;;;;1899349;75;21193;-74
2021/03/27 10:24:27;;;;;;;14.13;3.30;;;11.40;99.90;;;;;;1897349;75;21109;-74
2021/03/27 10:27:07;;;;;;;13.80;3.20;;;11.40;99.90;;;;;;1899519;75;21102;-74
2021/03/27 10:29:42;;;;;;;11.55;2.75;;;11.30;99.90;;;;;;1887697;75;21408;-73
2021/03/27 10:32:33;;;;;;;14.95;2.90;;;11.30;99.90;;;;;;1876784;74;21227;-73
2021/03/27 10:35:22;;;;;;;13.70;3.13;;;11.20;99.90;;;;;;1878883;74;21156;-73
2021/03/27 10:37:52;;;;;;;11.30;2.72;;;11.00;99.90;;;;;;1878885;75;21168;-75
2021/03/27 10:40:39;;;;;;;10.38;2.90;;;10.80;99.90;;;;;;1872637;75;21147;-73
2021/03/27 10:43:34;;;;;;;17.35;3.35;;;10.80;99.90;;;;;;1841005;76;21176;-73
2021/03/27 10:46:10;;;;;;;13.13;2.55;;;10.90;99.90;;;;;;1874935;75;21179;-76
2021/03/27 10:49:07;;;;;;;11.03;3.05;;;11.00;99.80;;;;;;1841936;76;21705;-74
2021/03/27 10:51:58;;;;;;;12.33;2.65;;;11.00;99.20;;;;;;1846955;76;21103;-74
2021/03/27 10:54:40;;;;;;;12.93;2.42;;;11.10;99.30;;;;;;1876436;74;22091;-73
2021/03/27 10:57:18;;;;;;;;;;;11.20;98.60;;;;;;1878068;74;21606;-72
2021/03/27 11:00:01;;;;;;;13.55;2.92;;;11.30;97.50;;;;;;1869978;74;20192;-71
2021/03/27 11:02:49;;;;;;;14.28;2.87;;;11.60;97.90;;;;;;1877638;74;21125;-75
2021/03/27 11:05:42;;;;;;;12.25;3.22;;;11.80;97.20;;;;;;1875405;75;21179;-73
2021/03/27 11:08:28;;;;;;;14.50;3.22;;;11.90;97.90;;;;;;1876513;76;21206;-74
2021/03/27 11:11:19;;;;;;;14.40;3.22;;;11.80;97.00;;;;;;1876697;75;21154;-73
2021/03/27 11:14:22;;;;;;;13.60;2.62;;;11.80;97.00;;;;;;1876170;75;21519;-73
2021/03/27 11:17:11;;;;;;;18.30;3.42;;;11.90;96.90;;;;;;1873367;75;21133;-73
2021/03/27 11:19:44;;;;;;;22.42;4.58;;;11.90;97.30;;;;;;1874305;74;21113;-72
2021/03/27 11:22:37;;;;;;;16.30;3.70;;;12.00;98.50;;;;;;1869235;74;21066;-74
2021/03/27 11:25:20;;;;;;;15.60;3.30;;;11.90;98.90;;;;;;1879564;75;21092;-74
2021/03/27 11:28:14;;;;;;;13.75;3.42;;;11.50;99.50;;;;;;1823564;74;21207;-72
2021/03/27 11:31:00;;;;;;;15.03;3.30;;;11.20;99.90;;;;;;1877884;74;21159;-77
2021/03/27 11:33:47;;;;;;;14.15;3.62;;;11.00;99.90;;;;;;1869038;74;21089;-75
2021/03/27 11:36:23;;;;;;;9.43;3.05;;;10.90;99.90;;;;;;1873067;74;21253;-75
2021/03/27 11:39:05;;;;;;;11.45;2.37;;;10.80;99.90;;;;;;1875619;74;21147;-75
2021/03/27 11:41:37;;;;;;;;;;;10.80;99.90;;;;;;1875312;74;21165;-77
2021/03/27 11:44:31;;;;;;;12.90;2.77;;;10.90;99.90;;;;;;1872729;74;20206;-77
2021/03/27 11:47:02;;;;;;;17.85;4.10;;;10.90;99.90;;;;;;1871667;74;21179;-73
2021/03/27 11:49:42;;;;;;;10.03;2.60;;;11.00;99.90;;;;;;1870510;74;21128;-71
2021/03/27 11:52:30;;;;;;;12.53;2.98;;;11.10;99.90;;;;;;1877923;74;21105;-74
2021/03/27 11:55:04;;;;;;;9.88;2.67;;;11.10;99.90;;;;;;1873343;75;21627;-73
2021/03/27 11:58:04;;;;;;;13.20;2.80;;;11.40;99.90;;;;;;1875522;74;21118;-73
2021/03/27 12:01:03;;;;;;;10.18;2.90;;;11.50;99.90;;;;;;1868333;74;21164;-73
2021/03/27 12:03:58;;;;;;;11.85;2.85;;;11.60;99.90;;;;;;1878459;74;21164;-73
2021/03/27 12:06:38;;;;;;;15.00;2.87;;;11.60;99.90;;;;;;1883866;75;21034;-72
2021/03/27 12:09:17;;;;;;;11.85;2.80;;;11.50;99.90;;;;;;1839869;76;21085;-73
2021/03/27 12:12:02;;;;;;;16.25;3.35;;;11.50;99.90;;;;;;1876560;74;21153;-73
2021/03/27 12:14:49;;;;;;;15.65;3.30;;;11.50;99.90;;;;;;1872323;75;21069;-72
2021/03/27 12:17:26;;;;;;;10.63;3.05;;;11.50;99.90;;;;;;1871900;76;21093;-72
2021/03/27 12:20:15;;;;;;;13.78;3.27;;;11.50;99.90;;;;;;1869576;74;21195;-72
2021/03/27 12:23:02;;;;;;;9.78;2.25;;;11.50;99.90;;;;;;1869339;74;21109;-73
2021/03/27 12:25:48;;;;;;;11.20;2.40;;;11.70;99.90;;;;;;1858627;74;21148;-72
2021/03/27 12:28:33;;;;;;;13.25;2.58;;;12.10;99.90;;;;;;1875926;74;21093;-72
2021/03/27 12:31:13;;;;;;;6.75;1.70;;;12.50;99.90;;;;;;1861734;75;21152;-72
2021/03/27 12:33:46;;;;;;;9.03;1.92;;;12.80;99.70;;;;;;1876542;75;22477;-72
2021/03/27 12:36:42;;;;;;;9.65;2.40;;;12.90;98.20;;;;;;1877174;76;21619;-73
2021/03/27 12:39:18;;;;;;;10.32;1.90;;;13.00;97.80;;;;;;1878292;74;21157;-74
2021/03/27 12:42:00;;;;;;;10.58;2.37;;;13.00;97.40;;;;;;1875618;74;21634;-72
2021/03/27 12:44:33;;;;;;;7.90;2.20;;;13.10;97.80;;;;;;1849233;76;21119;-74
2021/03/27 12:47:20;;;;;;;7.60;2.12;;;12.90;95.80;;;;;;1877072;75;21252;-74
2021/03/27 12:49:54;;;;;;;7.75;1.92;;;12.70;95.60;;;;;;1848706;76;21282;-75
2021/03/27 12:52:33;;;;;;;7.12;1.62;;;12.10;93.80;;;;;;1845370;76;21183;-72
2021/03/27 12:55:37;;;;;;;5.65;1.67;;;12.10;94.00;;;;;;1879620;75;21515;-74
2021/03/27 12:58:26;;;;;;;5.25;1.65;;;11.90;93.10;;;;;;1874602;74;21133;-74
2021/03/27 13:00:56;;;;;;;10.88;2.27;;;12.40;93.90;;;;;;1869089;74;21125;-74
2021/03/27 13:03:43;;;;;;;9.03;2.02;;;13.20;92.40;;;;;;1875674;74;21083;-75
2021/03/27 13:06:30;;;;;;;8.78;1.98;;;13.90;91.40;;;;;;1875701;74;21125;-73
2021/03/27 13:09:13;;;;;;;6.37;2.00;;;14.60;91.80;;;;;;1872026;74;21109;-76
2021/03/27 13:11:46;;;;;;;11.10;1.70;;;14.90;90.50;;;;;;1881404;74;21173;-77
2021/03/27 13:14:42;;;;;;;9.05;2.20;;;14.20;89.20;;;;;;1876537;74;21218;-77
2021/03/27 13:17:15;;;;;;;9.05;2.42;;;13.50;91.50;;;;;;1875889;74;21105;-77
2021/03/27 13:19:46;;;;;;;7.65;2.10;;;13.20;92.10;;;;;;1883910;74;21122;-77
2021/03/27 13:22:25;;;;;;;6.80;1.52;;;12.90;90.40;;;;;;1838644;76;22493;-77
2021/03/27 13:25:11;;;;;;;9.20;1.77;;;12.60;89.80;;;;;;1875399;74;21102;-77
2021/03/27 13:27:51;;;;;;;7.50;1.95;;;12.40;90.70;;;;;;1868690;74;21563;-77
2021/03/27 13:30:25;;;;;;;8.20;1.90;;;12.30;89.80;;;;;;1876965;74;21046;-77
2021/03/27 13:32:58;;;;;;;10.28;1.92;;;12.20;88.30;;;;;;1868576;74;21603;-77
2021/03/27 13:35:31;;;;;;;8.85;1.55;;;12.20;87.10;;;;;;1876686;74;21457;-77
2021/03/27 13:38:17;;;;;;;6.40;1.77;;;12.00;84.40;;;;;;1873691;74;21051;-77
2021/03/27 13:40:48;;;;;;;8.30;1.65;;;11.90;86.10;;;;;;1876233;74;21043;-77
2021/03/27 13:43:33;;;;;;;7.90;2.08;;;11.90;86.10;;;;;;1871625;74;21082;-77
2021/03/27 13:46:09;;;;;;;5.65;1.60;;;11.90;85.60;;;;;;1879946;74;21163;-77
2021/03/27 13:48:56;;;;;;;7.90;1.77;;;11.80;88.30;;;;;;1875598;74;21209;-76
2021/03/27 13:51:33;;;;;;;8.53;1.77;;;12.10;88.00;;;;;;1880952;74;21615;-76
2021/03/27 13:54:06;;;;;;;8.23;1.45;;;12.90;88.20;;;;;;1877054;75;21202;-76
2021/03/27 13:56:37;;;;;;;5.10;1.40;;;14.10;87.40;;;;;;1842466;76;21093;-76
2021/03/27 13:59:16;;;;;;;6.40;1.30;;;15.00;84.00;;;;;;1849806;76;22513;-76
2021/03/27 14:01:50;;;;;;;8.83;1.95;;;15.60;81.40;;;;;;1842425;76;21133;-74